sensor_id;sensor_type;location;lat;lon;timestamp;P1;durP1;ratioP1;P2;durP2;ratioP2
83595;SDS011;73564;45.026;38.952;2023-12-22T00:01:13;2.40;;;1.25;;
83595;SDS011;73564;45.026;38.952;2023-12-22T00:03:44;2.47;;;1.27;;
83595;SDS011;73564;45.026;38.952;2023-12-22T00:06:11;3.03;;;1.65;;
83595;SDS011;73564;45.026;38.952;2023-12-22T00:08:37;2.63;;;1.20;;
83595;SDS011;73564;45.026;38.952;2023-12-22T00:11:04;3.40;;;1.42;;
83595;SDS011;73564;45.026;38.952;2023-12-22T00:13:30;2.90;;;1.35;;
83595;SDS011;73564;45.026;38.952;2023-12-22T00:15:58;3.20;;;1.33;;
83595;SDS011;73564;45.026;38.952;2023-12-22T00:18:24;4.00;;;1.95;;
83595;SDS011;73564;45.026;38.952;2023-12-22T00:20:50;4.45;;;1.35;;
83595;SDS011;73564;45.026;38.952;2023-12-22T00:23:16;4.55;;;1.30;;
83595;SDS011;73564;45.026;38.952;2023-12-22T00:25:42;4.10;;;1.52;;
83595;SDS011;73564;45.026;38.952;2023-12-22T00:28:08;3.92;;;1.30;;
83595;SDS011;73564;45.026;38.952;2023-12-22T00:30:34;4.22;;;1.67;;
83595;SDS011;73564;45.026;38.952;2023-12-22T00:33:00;2.85;;;1.63;;
83595;SDS011;73564;45.026;38.952;2023-12-22T00:35:25;2.35;;;1.30;;
83595;SDS011;73564;45.026;38.952;2023-12-22T00:37:51;2.85;;;1.38;;
83595;SDS011;73564;45.026;38.952;2023-12-22T00:40:18;3.35;;;0.90;;
83595;SDS011;73564;45.026;38.952;2023-12-22T00:42:44;2.75;;;1.20;;
83595;SDS011;73564;45.026;38.952;2023-12-22T00:45:10;2.03;;;1.23;;
83595;SDS011;73564;45.026;38.952;2023-12-22T00:47:36;5.60;;;1.73;;
83595;SDS011;73564;45.026;38.952;2023-12-22T00:50:02;3.25;;;1.42;;
83595;SDS011;73564;45.026;38.952;2023-12-22T00:54:55;2.53;;;1.52;;
83595;SDS011;73564;45.026;38.952;2023-12-22T00:57:21;3.67;;;1.50;;
83595;SDS011;73564;45.026;38.952;2023-12-22T00:59:47;2.60;;;1.02;;
83595;SDS011;73564;45.026;38.952;2023-12-22T01:02:16;3.30;;;1.23;;
83595;SDS011;73564;45.026;38.952;2023-12-22T01:04:43;2.25;;;1.10;;
83595;SDS011;73564;45.026;38.952;2023-12-22T01:07:09;3.15;;;1.20;;
83595;SDS011;73564;45.026;38.952;2023-12-22T01:09:36;2.90;;;1.00;;
83595;SDS011;73564;45.026;38.952;2023-12-22T01:12:05;4.40;;;1.65;;
83595;SDS011;73564;45.026;38.952;2023-12-22T01:16:58;3.70;;;1.30;;
83595;SDS011;73564;45.026;38.952;2023-12-22T01:19:26;2.33;;;1.20;;
83595;SDS011;73564;45.026;38.952;2023-12-22T01:21:53;3.53;;;1.25;;
83595;SDS011;73564;45.026;38.952;2023-12-22T01:24:19;2.28;;;1.23;;
83595;SDS011;73564;45.026;38.952;2023-12-22T01:26:45;4.05;;;1.27;;
83595;SDS011;73564;45.026;38.952;2023-12-22T01:29:11;3.80;;;1.88;;
83595;SDS011;73564;45.026;38.952;2023-12-22T01:31:36;2.90;;;1.13;;
83595;SDS011;73564;45.026;38.952;2023-12-22T01:34:02;3.17;;;1.38;;
83595;SDS011;73564;45.026;38.952;2023-12-22T01:36:28;3.20;;;1.30;;
83595;SDS011;73564;45.026;38.952;2023-12-22T01:38:54;3.67;;;1.65;;
83595;SDS011;73564;45.026;38.952;2023-12-22T01:41:20;2.20;;;1.30;;
83595;SDS011;73564;45.026;38.952;2023-12-22T01:43:45;2.70;;;1.13;;
83595;SDS011;73564;45.026;38.952;2023-12-22T01:46:11;4.07;;;1.55;;
83595;SDS011;73564;45.026;38.952;2023-12-22T01:48:37;2.67;;;1.27;;
83595;SDS011;73564;45.026;38.952;2023-12-22T01:51:04;3.03;;;1.65;;
83595;SDS011;73564;45.026;38.952;2023-12-22T01:53:31;3.30;;;1.48;;
83595;SDS011;73564;45.026;38.952;2023-12-22T01:55:57;2.50;;;1.10;;
83595;SDS011;73564;45.026;38.952;2023-12-22T01:58:26;4.03;;;1.80;;
83595;SDS011;73564;45.026;38.952;2023-12-22T02:03:19;3.08;;;1.42;;
83595;SDS011;73564;45.026;38.952;2023-12-22T02:05:45;2.78;;;1.50;;
83595;SDS011;73564;45.026;38.952;2023-12-22T02:08:11;3.15;;;1.30;;
83595;SDS011;73564;45.026;38.952;2023-12-22T02:10:38;3.13;;;1.27;;
83595;SDS011;73564;45.026;38.952;2023-12-22T02:13:04;2.70;;;1.30;;
83595;SDS011;73564;45.026;38.952;2023-12-22T02:15:31;2.90;;;1.55;;
83595;SDS011;73564;45.026;38.952;2023-12-22T02:17:59;2.75;;;1.60;;
83595;SDS011;73564;45.026;38.952;2023-12-22T02:20:30;3.15;;;1.83;;
83595;SDS011;73564;45.026;38.952;2023-12-22T02:22:57;5.25;;;1.35;;
83595;SDS011;73564;45.026;38.952;2023-12-22T02:25:23;5.25;;;1.90;;
83595;SDS011;73564;45.026;38.952;2023-12-22T02:27:50;4.35;;;1.50;;
83595;SDS011;73564;45.026;38.952;2023-12-22T02:32:50;5.47;;;1.73;;
83595;SDS011;73564;45.026;38.952;2023-12-22T02:35:20;4.70;;;2.13;;
83595;SDS011;73564;45.026;38.952;2023-12-22T02:37:49;4.25;;;1.83;;
83595;SDS011;73564;45.026;38.952;2023-12-22T02:40:16;3.97;;;1.27;;
83595;SDS011;73564;45.026;38.952;2023-12-22T02:42:43;3.70;;;1.48;;
83595;SDS011;73564;45.026;38.952;2023-12-22T02:45:16;3.10;;;1.42;;
83595;SDS011;73564;45.026;38.952;2023-12-22T02:47:43;4.80;;;1.63;;
83595;SDS011;73564;45.026;38.952;2023-12-22T02:50:10;3.38;;;1.70;;
83595;SDS011;73564;45.026;38.952;2023-12-22T02:52:37;4.40;;;1.65;;
83595;SDS011;73564;45.026;38.952;2023-12-22T02:55:03;5.18;;;1.85;;
83595;SDS011;73564;45.026;38.952;2023-12-22T02:57:30;2.83;;;1.33;;
83595;SDS011;73564;45.026;38.952;2023-12-22T02:59:56;3.83;;;1.50;;
83595;SDS011;73564;45.026;38.952;2023-12-22T03:02:22;4.40;;;1.88;;
83595;SDS011;73564;45.026;38.952;2023-12-22T03:04:48;4.35;;;1.70;;
83595;SDS011;73564;45.026;38.952;2023-12-22T03:07:14;4.90;;;1.83;;
83595;SDS011;73564;45.026;38.952;2023-12-22T03:09:41;3.17;;;1.90;;
83595;SDS011;73564;45.026;38.952;2023-12-22T03:12:09;4.20;;;1.60;;
83595;SDS011;73564;45.026;38.952;2023-12-22T03:14:35;3.15;;;1.38;;
83595;SDS011;73564;45.026;38.952;2023-12-22T03:17:02;3.15;;;1.60;;
83595;SDS011;73564;45.026;38.952;2023-12-22T03:19:29;4.40;;;2.92;;
83595;SDS011;73564;45.026;38.952;2023-12-22T03:21:55;4.65;;;1.63;;
83595;SDS011;73564;45.026;38.952;2023-12-22T03:24:24;5.28;;;2.30;;
83595;SDS011;73564;45.026;38.952;2023-12-22T03:26:51;3.33;;;1.60;;
83595;SDS011;73564;45.026;38.952;2023-12-22T03:29:18;2.80;;;1.40;;
83595;SDS011;73564;45.026;38.952;2023-12-22T03:31:44;3.05;;;1.40;;
83595;SDS011;73564;45.026;38.952;2023-12-22T03:34:10;3.35;;;1.50;;
83595;SDS011;73564;45.026;38.952;2023-12-22T03:36:37;2.75;;;1.33;;
83595;SDS011;73564;45.026;38.952;2023-12-22T03:39:03;2.88;;;1.20;;
83595;SDS011;73564;45.026;38.952;2023-12-22T03:41:29;3.13;;;1.40;;
83595;SDS011;73564;45.026;38.952;2023-12-22T03:43:55;3.38;;;1.58;;
83595;SDS011;73564;45.026;38.952;2023-12-22T03:46:22;4.28;;;1.63;;
83595;SDS011;73564;45.026;38.952;2023-12-22T03:48:48;4.30;;;1.10;;
83595;SDS011;73564;45.026;38.952;2023-12-22T03:53:41;2.28;;;1.02;;
83595;SDS011;73564;45.026;38.952;2023-12-22T03:56:10;4.05;;;1.48;;
83595;SDS011;73564;45.026;38.952;2023-12-22T03:58:36;4.30;;;1.20;;
83595;SDS011;73564;45.026;38.952;2023-12-22T04:01:02;2.65;;;1.17;;
83595;SDS011;73564;45.026;38.952;2023-12-22T04:03:28;4.75;;;1.63;;
83595;SDS011;73564;45.026;38.952;2023-12-22T04:05:55;4.50;;;1.50;;
83595;SDS011;73564;45.026;38.952;2023-12-22T04:08:20;2.95;;;1.00;;
83595;SDS011;73564;45.026;38.952;2023-12-22T04:10:47;4.13;;;1.10;;
83595;SDS011;73564;45.026;38.952;2023-12-22T04:13:12;4.05;;;1.00;;
83595;SDS011;73564;45.026;38.952;2023-12-22T04:15:38;4.05;;;1.33;;
83595;SDS011;73564;45.026;38.952;2023-12-22T04:18:04;2.05;;;1.15;;
83595;SDS011;73564;45.026;38.952;2023-12-22T04:20:30;2.90;;;1.20;;
83595;SDS011;73564;45.026;38.952;2023-12-22T04:22:57;3.05;;;1.52;;
83595;SDS011;73564;45.026;38.952;2023-12-22T04:25:23;2.38;;;1.08;;
83595;SDS011;73564;45.026;38.952;2023-12-22T04:27:50;5.53;;;1.63;;
83595;SDS011;73564;45.026;38.952;2023-12-22T04:30:17;4.97;;;1.67;;
83595;SDS011;73564;45.026;38.952;2023-12-22T04:32:42;3.63;;;1.75;;
83595;SDS011;73564;45.026;38.952;2023-12-22T04:35:08;3.42;;;1.45;;
83595;SDS011;73564;45.026;38.952;2023-12-22T04:37:34;2.17;;;1.17;;
83595;SDS011;73564;45.026;38.952;2023-12-22T04:40:00;3.28;;;1.42;;
83595;SDS011;73564;45.026;38.952;2023-12-22T04:42:26;3.38;;;2.00;;
83595;SDS011;73564;45.026;38.952;2023-12-22T04:44:52;3.53;;;1.52;;
83595;SDS011;73564;45.026;38.952;2023-12-22T04:47:18;3.95;;;1.63;;
83595;SDS011;73564;45.026;38.952;2023-12-22T04:49:44;2.47;;;1.40;;
83595;SDS011;73564;45.026;38.952;2023-12-22T04:52:12;3.70;;;1.50;;
83595;SDS011;73564;45.026;38.952;2023-12-22T04:54:38;41.75;;;19.88;;
83595;SDS011;73564;45.026;38.952;2023-12-22T04:57:04;23.17;;;10.43;;
83595;SDS011;73564;45.026;38.952;2023-12-22T04:59:30;4.93;;;2.55;;
83595;SDS011;73564;45.026;38.952;2023-12-22T05:01:56;3.45;;;1.85;;
83595;SDS011;73564;45.026;38.952;2023-12-22T05:04:22;4.00;;;1.95;;
83595;SDS011;73564;45.026;38.952;2023-12-22T05:06:48;3.70;;;1.60;;
83595;SDS011;73564;45.026;38.952;2023-12-22T05:09:14;3.83;;;2.15;;
83595;SDS011;73564;45.026;38.952;2023-12-22T05:11:40;4.72;;;2.15;;
83595;SDS011;73564;45.026;38.952;2023-12-22T05:14:06;7.22;;;2.40;;
83595;SDS011;73564;45.026;38.952;2023-12-22T05:16:32;6.25;;;2.45;;
83595;SDS011;73564;45.026;38.952;2023-12-22T05:18:58;4.75;;;2.30;;
83595;SDS011;73564;45.026;38.952;2023-12-22T05:21:24;8.88;;;2.10;;
83595;SDS011;73564;45.026;38.952;2023-12-22T05:23:50;4.53;;;1.70;;
83595;SDS011;73564;45.026;38.952;2023-12-22T05:26:16;4.85;;;2.08;;
83595;SDS011;73564;45.026;38.952;2023-12-22T05:28:46;5.90;;;2.40;;
83595;SDS011;73564;45.026;38.952;2023-12-22T05:31:14;6.38;;;2.22;;
83595;SDS011;73564;45.026;38.952;2023-12-22T05:33:41;6.13;;;2.08;;
83595;SDS011;73564;45.026;38.952;2023-12-22T05:36:06;5.60;;;2.38;;
83595;SDS011;73564;45.026;38.952;2023-12-22T05:38:33;6.70;;;2.72;;
83595;SDS011;73564;45.026;38.952;2023-12-22T05:41:03;3.83;;;2.15;;
83595;SDS011;73564;45.026;38.952;2023-12-22T05:43:29;6.00;;;3.17;;
83595;SDS011;73564;45.026;38.952;2023-12-22T05:45:55;6.97;;;3.88;;
83595;SDS011;73564;45.026;38.952;2023-12-22T05:48:20;6.03;;;4.03;;
83595;SDS011;73564;45.026;38.952;2023-12-22T05:50:47;10.55;;;4.43;;
83595;SDS011;73564;45.026;38.952;2023-12-22T05:53:13;7.78;;;3.80;;
83595;SDS011;73564;45.026;38.952;2023-12-22T05:55:40;8.20;;;3.55;;
83595;SDS011;73564;45.026;38.952;2023-12-22T05:58:06;8.63;;;3.72;;
83595;SDS011;73564;45.026;38.952;2023-12-22T06:00:32;8.02;;;2.35;;
83595;SDS011;73564;45.026;38.952;2023-12-22T06:02:57;7.15;;;3.40;;
83595;SDS011;73564;45.026;38.952;2023-12-22T06:05:23;7.97;;;2.85;;
83595;SDS011;73564;45.026;38.952;2023-12-22T06:07:49;3.83;;;2.13;;
83595;SDS011;73564;45.026;38.952;2023-12-22T06:10:15;5.78;;;2.38;;
83595;SDS011;73564;45.026;38.952;2023-12-22T06:12:41;4.38;;;1.85;;
83595;SDS011;73564;45.026;38.952;2023-12-22T06:15:07;4.57;;;2.10;;
83595;SDS011;73564;45.026;38.952;2023-12-22T06:17:33;5.53;;;2.22;;
83595;SDS011;73564;45.026;38.952;2023-12-22T06:19:58;4.10;;;1.88;;
83595;SDS011;73564;45.026;38.952;2023-12-22T06:22:24;4.28;;;2.10;;
83595;SDS011;73564;45.026;38.952;2023-12-22T06:24:50;3.55;;;2.15;;
83595;SDS011;73564;45.026;38.952;2023-12-22T06:27:16;3.85;;;1.85;;
83595;SDS011;73564;45.026;38.952;2023-12-22T06:29:42;5.53;;;2.15;;
83595;SDS011;73564;45.026;38.952;2023-12-22T06:32:08;3.58;;;1.77;;
83595;SDS011;73564;45.026;38.952;2023-12-22T06:34:34;3.88;;;1.90;;
83595;SDS011;73564;45.026;38.952;2023-12-22T06:36:59;6.28;;;2.60;;
83595;SDS011;73564;45.026;38.952;2023-12-22T06:39:25;5.78;;;2.33;;
83595;SDS011;73564;45.026;38.952;2023-12-22T06:41:51;4.30;;;2.25;;
83595;SDS011;73564;45.026;38.952;2023-12-22T06:44:17;5.72;;;2.00;;
83595;SDS011;73564;45.026;38.952;2023-12-22T06:46:43;3.85;;;2.30;;
83595;SDS011;73564;45.026;38.952;2023-12-22T06:49:08;7.18;;;2.80;;
83595;SDS011;73564;45.026;38.952;2023-12-22T06:51:34;4.38;;;2.03;;
83595;SDS011;73564;45.026;38.952;2023-12-22T06:54:01;5.55;;;2.70;;
83595;SDS011;73564;45.026;38.952;2023-12-22T06:56:28;2.72;;;1.92;;
83595;SDS011;73564;45.026;38.952;2023-12-22T06:58:55;3.42;;;2.00;;
83595;SDS011;73564;45.026;38.952;2023-12-22T07:01:25;3.33;;;1.83;;
83595;SDS011;73564;45.026;38.952;2023-12-22T07:03:54;4.00;;;1.63;;
83595;SDS011;73564;45.026;38.952;2023-12-22T07:06:20;3.65;;;1.98;;
83595;SDS011;73564;45.026;38.952;2023-12-22T07:11:34;4.10;;;2.60;;
83595;SDS011;73564;45.026;38.952;2023-12-22T07:14:00;9.13;;;2.58;;
83595;SDS011;73564;45.026;38.952;2023-12-22T07:16:26;7.20;;;2.50;;
83595;SDS011;73564;45.026;38.952;2023-12-22T07:18:51;6.82;;;2.33;;
83595;SDS011;73564;45.026;38.952;2023-12-22T07:21:18;4.82;;;2.10;;
83595;SDS011;73564;45.026;38.952;2023-12-22T07:23:44;5.55;;;2.22;;
83595;SDS011;73564;45.026;38.952;2023-12-22T07:26:10;5.53;;;2.72;;
83595;SDS011;73564;45.026;38.952;2023-12-22T07:28:38;4.30;;;2.35;;
83595;SDS011;73564;45.026;38.952;2023-12-22T07:31:04;5.15;;;2.40;;
83595;SDS011;73564;45.026;38.952;2023-12-22T07:33:30;4.82;;;2.42;;
83595;SDS011;73564;45.026;38.952;2023-12-22T07:35:57;5.43;;;3.20;;
83595;SDS011;73564;45.026;38.952;2023-12-22T07:38:22;7.60;;;2.67;;
83595;SDS011;73564;45.026;38.952;2023-12-22T07:40:48;5.13;;;2.17;;
83595;SDS011;73564;45.026;38.952;2023-12-22T07:43:15;4.97;;;2.53;;
83595;SDS011;73564;45.026;38.952;2023-12-22T07:45:41;4.85;;;2.42;;
83595;SDS011;73564;45.026;38.952;2023-12-22T07:48:07;3.47;;;1.83;;
83595;SDS011;73564;45.026;38.952;2023-12-22T07:50:33;5.75;;;2.13;;
83595;SDS011;73564;45.026;38.952;2023-12-22T07:52:59;6.40;;;2.55;;
83595;SDS011;73564;45.026;38.952;2023-12-22T07:55:25;5.40;;;2.17;;
83595;SDS011;73564;45.026;38.952;2023-12-22T07:57:51;4.70;;;2.25;;
83595;SDS011;73564;45.026;38.952;2023-12-22T08:00:17;4.38;;;1.85;;
83595;SDS011;73564;45.026;38.952;2023-12-22T08:02:43;3.30;;;2.08;;
83595;SDS011;73564;45.026;38.952;2023-12-22T08:05:09;6.55;;;3.25;;
83595;SDS011;73564;45.026;38.952;2023-12-22T08:07:35;5.55;;;2.80;;
83595;SDS011;73564;45.026;38.952;2023-12-22T08:10:02;5.35;;;2.85;;
83595;SDS011;73564;45.026;38.952;2023-12-22T08:12:28;7.95;;;3.30;;
83595;SDS011;73564;45.026;38.952;2023-12-22T08:14:54;7.90;;;3.00;;
83595;SDS011;73564;45.026;38.952;2023-12-22T08:17:20;5.95;;;2.63;;
83595;SDS011;73564;45.026;38.952;2023-12-22T08:19:46;5.60;;;2.90;;
83595;SDS011;73564;45.026;38.952;2023-12-22T08:22:12;6.18;;;2.35;;
83595;SDS011;73564;45.026;38.952;2023-12-22T08:24:41;4.82;;;2.35;;
83595;SDS011;73564;45.026;38.952;2023-12-22T08:27:07;4.05;;;2.42;;
83595;SDS011;73564;45.026;38.952;2023-12-22T08:29:33;4.25;;;2.30;;
83595;SDS011;73564;45.026;38.952;2023-12-22T08:32:00;4.93;;;2.00;;
83595;SDS011;73564;45.026;38.952;2023-12-22T08:34:26;5.10;;;2.20;;
83595;SDS011;73564;45.026;38.952;2023-12-22T08:36:53;8.05;;;2.50;;
83595;SDS011;73564;45.026;38.952;2023-12-22T08:39:19;4.70;;;2.50;;
83595;SDS011;73564;45.026;38.952;2023-12-22T08:41:45;4.35;;;2.25;;
83595;SDS011;73564;45.026;38.952;2023-12-22T08:44:11;4.68;;;2.10;;
83595;SDS011;73564;45.026;38.952;2023-12-22T08:46:39;5.75;;;2.30;;
83595;SDS011;73564;45.026;38.952;2023-12-22T08:49:05;4.68;;;2.33;;
83595;SDS011;73564;45.026;38.952;2023-12-22T08:51:32;5.78;;;2.05;;
83595;SDS011;73564;45.026;38.952;2023-12-22T08:53:59;3.83;;;1.92;;
83595;SDS011;73564;45.026;38.952;2023-12-22T08:56:25;4.43;;;1.75;;
83595;SDS011;73564;45.026;38.952;2023-12-22T08:58:52;9.32;;;2.65;;
83595;SDS011;73564;45.026;38.952;2023-12-22T09:01:20;6.22;;;2.03;;
83595;SDS011;73564;45.026;38.952;2023-12-22T09:03:47;3.63;;;1.77;;
83595;SDS011;73564;45.026;38.952;2023-12-22T09:06:15;7.18;;;2.20;;
83595;SDS011;73564;45.026;38.952;2023-12-22T09:08:42;3.50;;;1.63;;
83595;SDS011;73564;45.026;38.952;2023-12-22T09:11:10;2.67;;;1.58;;
83595;SDS011;73564;45.026;38.952;2023-12-22T09:13:37;3.78;;;1.55;;
83595;SDS011;73564;45.026;38.952;2023-12-22T09:16:03;4.78;;;2.33;;
83595;SDS011;73564;45.026;38.952;2023-12-22T09:18:30;7.35;;;2.50;;
83595;SDS011;73564;45.026;38.952;2023-12-22T09:20:56;2.83;;;1.45;;
83595;SDS011;73564;45.026;38.952;2023-12-22T09:23:23;5.07;;;1.83;;
83595;SDS011;73564;45.026;38.952;2023-12-22T09:25:49;7.10;;;2.15;;
83595;SDS011;73564;45.026;38.952;2023-12-22T09:28:15;5.93;;;1.90;;
83595;SDS011;73564;45.026;38.952;2023-12-22T09:30:41;4.20;;;2.22;;
83595;SDS011;73564;45.026;38.952;2023-12-22T09:33:07;3.78;;;1.58;;
83595;SDS011;73564;45.026;38.952;2023-12-22T09:35:36;2.92;;;1.35;;
83595;SDS011;73564;45.026;38.952;2023-12-22T09:38:05;5.68;;;1.80;;
83595;SDS011;73564;45.026;38.952;2023-12-22T09:40:31;3.03;;;1.42;;
83595;SDS011;73564;45.026;38.952;2023-12-22T09:43:00;3.53;;;1.85;;
83595;SDS011;73564;45.026;38.952;2023-12-22T09:45:27;4.65;;;2.15;;
83595;SDS011;73564;45.026;38.952;2023-12-22T09:47:55;5.88;;;1.77;;
83595;SDS011;73564;45.026;38.952;2023-12-22T09:50:24;6.68;;;1.90;;
83595;SDS011;73564;45.026;38.952;2023-12-22T09:55:16;4.72;;;1.98;;
83595;SDS011;73564;45.026;38.952;2023-12-22T09:57:43;4.30;;;2.10;;
83595;SDS011;73564;45.026;38.952;2023-12-22T10:00:11;4.97;;;1.90;;
83595;SDS011;73564;45.026;38.952;2023-12-22T10:02:38;5.30;;;2.20;;
83595;SDS011;73564;45.026;38.952;2023-12-22T10:05:05;4.22;;;2.10;;
83595;SDS011;73564;45.026;38.952;2023-12-22T10:07:31;5.22;;;2.55;;
83595;SDS011;73564;45.026;38.952;2023-12-22T10:09:59;5.88;;;2.35;;
83595;SDS011;73564;45.026;38.952;2023-12-22T10:12:29;5.68;;;2.58;;
83595;SDS011;73564;45.026;38.952;2023-12-22T10:14:59;7.68;;;2.72;;
83595;SDS011;73564;45.026;38.952;2023-12-22T10:17:25;6.43;;;2.85;;
83595;SDS011;73564;45.026;38.952;2023-12-22T10:19:51;5.47;;;3.08;;
83595;SDS011;73564;45.026;38.952;2023-12-22T10:22:17;8.07;;;3.28;;
83595;SDS011;73564;45.026;38.952;2023-12-22T10:24:45;5.60;;;2.67;;
83595;SDS011;73564;45.026;38.952;2023-12-22T10:27:18;6.50;;;2.75;;
83595;SDS011;73564;45.026;38.952;2023-12-22T10:29:56;5.28;;;2.92;;
83595;SDS011;73564;45.026;38.952;2023-12-22T10:32:22;8.63;;;3.20;;
83595;SDS011;73564;45.026;38.952;2023-12-22T10:34:52;8.95;;;3.83;;
83595;SDS011;73564;45.026;38.952;2023-12-22T10:37:18;8.05;;;4.07;;
83595;SDS011;73564;45.026;38.952;2023-12-22T10:39:44;12.68;;;5.20;;
83595;SDS011;73564;45.026;38.952;2023-12-22T10:42:13;12.00;;;4.70;;
83595;SDS011;73564;45.026;38.952;2023-12-22T10:44:40;10.23;;;4.88;;
83595;SDS011;73564;45.026;38.952;2023-12-22T10:47:07;10.90;;;4.65;;
83595;SDS011;73564;45.026;38.952;2023-12-22T10:49:32;11.82;;;4.53;;
83595;SDS011;73564;45.026;38.952;2023-12-22T10:51:59;10.68;;;5.28;;
83595;SDS011;73564;45.026;38.952;2023-12-22T10:54:25;9.25;;;4.53;;
83595;SDS011;73564;45.026;38.952;2023-12-22T10:59:19;10.50;;;4.80;;
83595;SDS011;73564;45.026;38.952;2023-12-22T11:01:48;11.50;;;5.18;;
83595;SDS011;73564;45.026;38.952;2023-12-22T11:04:17;8.15;;;4.32;;
83595;SDS011;73564;45.026;38.952;2023-12-22T11:06:45;16.45;;;4.55;;
83595;SDS011;73564;45.026;38.952;2023-12-22T11:09:14;16.50;;;5.28;;
83595;SDS011;73564;45.026;38.952;2023-12-22T11:11:43;9.07;;;4.95;;
83595;SDS011;73564;45.026;38.952;2023-12-22T11:16:36;10.70;;;4.93;;
83595;SDS011;73564;45.026;38.952;2023-12-22T11:19:03;12.25;;;5.80;;
83595;SDS011;73564;45.026;38.952;2023-12-22T11:21:30;15.73;;;5.55;;
83595;SDS011;73564;45.026;38.952;2023-12-22T11:23:56;12.02;;;5.60;;
83595;SDS011;73564;45.026;38.952;2023-12-22T11:26:23;10.73;;;4.85;;
83595;SDS011;73564;45.026;38.952;2023-12-22T11:28:50;11.43;;;5.25;;
83595;SDS011;73564;45.026;38.952;2023-12-22T11:31:20;9.93;;;4.72;;
83595;SDS011;73564;45.026;38.952;2023-12-22T11:33:46;11.23;;;5.63;;
83595;SDS011;73564;45.026;38.952;2023-12-22T11:36:14;10.43;;;5.03;;
83595;SDS011;73564;45.026;38.952;2023-12-22T11:38:41;11.85;;;5.55;;
83595;SDS011;73564;45.026;38.952;2023-12-22T11:41:29;13.88;;;5.45;;
83595;SDS011;73564;45.026;38.952;2023-12-22T11:43:56;10.07;;;5.72;;
83595;SDS011;73564;45.026;38.952;2023-12-22T11:46:24;11.20;;;5.18;;
83595;SDS011;73564;45.026;38.952;2023-12-22T11:48:50;12.20;;;5.40;;
83595;SDS011;73564;45.026;38.952;2023-12-22T11:51:17;12.60;;;6.00;;
83595;SDS011;73564;45.026;38.952;2023-12-22T11:53:44;14.95;;;6.65;;
83595;SDS011;73564;45.026;38.952;2023-12-22T11:56:10;10.57;;;5.78;;
83595;SDS011;73564;45.026;38.952;2023-12-22T11:58:45;9.68;;;5.32;;
83595;SDS011;73564;45.026;38.952;2023-12-22T12:01:18;10.63;;;5.72;;
83595;SDS011;73564;45.026;38.952;2023-12-22T12:11:07;14.23;;;5.75;;
83595;SDS011;73564;45.026;38.952;2023-12-22T12:13:33;12.10;;;5.85;;
83595;SDS011;73564;45.026;38.952;2023-12-22T12:15:59;11.13;;;5.68;;
83595;SDS011;73564;45.026;38.952;2023-12-22T12:18:27;13.27;;;6.00;;
83595;SDS011;73564;45.026;38.952;2023-12-22T12:20:54;11.73;;;5.30;;
83595;SDS011;73564;45.026;38.952;2023-12-22T12:23:23;12.85;;;5.80;;
83595;SDS011;73564;45.026;38.952;2023-12-22T12:25:49;18.00;;;6.75;;
83595;SDS011;73564;45.026;38.952;2023-12-22T12:28:15;12.60;;;6.60;;
83595;SDS011;73564;45.026;38.952;2023-12-22T12:30:44;14.52;;;6.43;;
83595;SDS011;73564;45.026;38.952;2023-12-22T12:33:11;14.85;;;6.30;;
83595;SDS011;73564;45.026;38.952;2023-12-22T12:35:39;13.35;;;6.32;;
83595;SDS011;73564;45.026;38.952;2023-12-22T12:38:06;13.77;;;7.25;;
83595;SDS011;73564;45.026;38.952;2023-12-22T12:40:32;12.75;;;6.40;;
83595;SDS011;73564;45.026;38.952;2023-12-22T12:43:00;10.40;;;5.45;;
83595;SDS011;73564;45.026;38.952;2023-12-22T12:47:56;11.63;;;6.07;;
83595;SDS011;73564;45.026;38.952;2023-12-22T12:50:26;12.82;;;6.30;;
83595;SDS011;73564;45.026;38.952;2023-12-22T12:52:54;13.57;;;6.85;;
83595;SDS011;73564;45.026;38.952;2023-12-22T12:55:21;13.10;;;6.65;;
83595;SDS011;73564;45.026;38.952;2023-12-22T12:57:50;12.48;;;6.28;;
83595;SDS011;73564;45.026;38.952;2023-12-22T13:00:26;10.25;;;6.05;;
83595;SDS011;73564;45.026;38.952;2023-12-22T13:02:53;12.88;;;6.35;;
83595;SDS011;73564;45.026;38.952;2023-12-22T13:05:30;11.63;;;5.75;;
83595;SDS011;73564;45.026;38.952;2023-12-22T13:08:09;11.90;;;6.03;;
83595;SDS011;73564;45.026;38.952;2023-12-22T13:10:36;9.05;;;5.38;;
83595;SDS011;73564;45.026;38.952;2023-12-22T13:13:03;9.65;;;5.57;;
83595;SDS011;73564;45.026;38.952;2023-12-22T13:15:29;14.57;;;6.20;;
83595;SDS011;73564;45.026;38.952;2023-12-22T13:17:56;18.75;;;6.28;;
83595;SDS011;73564;45.026;38.952;2023-12-22T13:20:22;12.23;;;5.95;;
83595;SDS011;73564;45.026;38.952;2023-12-22T13:22:48;12.88;;;6.32;;
83595;SDS011;73564;45.026;38.952;2023-12-22T13:25:14;15.98;;;6.35;;
83595;SDS011;73564;45.026;38.952;2023-12-22T13:27:47;13.60;;;5.80;;
83595;SDS011;73564;45.026;38.952;2023-12-22T13:33:00;24.27;;;11.00;;
83595;SDS011;73564;45.026;38.952;2023-12-22T13:35:26;14.02;;;6.57;;
83595;SDS011;73564;45.026;38.952;2023-12-22T13:37:54;13.48;;;5.38;;
83595;SDS011;73564;45.026;38.952;2023-12-22T13:40:20;13.18;;;5.88;;
83595;SDS011;73564;45.026;38.952;2023-12-22T13:42:53;16.92;;;6.47;;
83595;SDS011;73564;45.026;38.952;2023-12-22T13:45:24;13.23;;;6.00;;
83595;SDS011;73564;45.026;38.952;2023-12-22T13:47:50;10.27;;;5.90;;
83595;SDS011;73564;45.026;38.952;2023-12-22T13:50:16;12.45;;;7.05;;
83595;SDS011;73564;45.026;38.952;2023-12-22T13:57:36;12.63;;;6.07;;
83595;SDS011;73564;45.026;38.952;2023-12-22T14:00:07;12.63;;;5.90;;
83595;SDS011;73564;45.026;38.952;2023-12-22T14:02:52;13.77;;;6.70;;
83595;SDS011;73564;45.026;38.952;2023-12-22T14:05:18;13.65;;;6.18;;
83595;SDS011;73564;45.026;38.952;2023-12-22T14:07:44;15.07;;;6.28;;
83595;SDS011;73564;45.026;38.952;2023-12-22T14:10:11;15.75;;;6.55;;
83595;SDS011;73564;45.026;38.952;2023-12-22T14:12:37;14.65;;;6.57;;
83595;SDS011;73564;45.026;38.952;2023-12-22T14:15:06;13.30;;;6.55;;
83595;SDS011;73564;45.026;38.952;2023-12-22T14:17:33;14.60;;;8.15;;
83595;SDS011;73564;45.026;38.952;2023-12-22T14:19:59;13.57;;;6.35;;
83595;SDS011;73564;45.026;38.952;2023-12-22T14:22:25;16.20;;;6.88;;
83595;SDS011;73564;45.026;38.952;2023-12-22T14:24:54;13.50;;;6.93;;
83595;SDS011;73564;45.026;38.952;2023-12-22T14:27:22;18.10;;;7.25;;
83595;SDS011;73564;45.026;38.952;2023-12-22T14:29:48;13.75;;;7.13;;
83595;SDS011;73564;45.026;38.952;2023-12-22T14:32:14;18.02;;;6.65;;
83595;SDS011;73564;45.026;38.952;2023-12-22T14:34:44;18.90;;;7.63;;
83595;SDS011;73564;45.026;38.952;2023-12-22T14:37:13;12.73;;;6.38;;
83595;SDS011;73564;45.026;38.952;2023-12-22T14:39:39;19.80;;;7.70;;
83595;SDS011;73564;45.026;38.952;2023-12-22T14:42:05;18.92;;;7.90;;
83595;SDS011;73564;45.026;38.952;2023-12-22T14:44:31;18.42;;;7.18;;
83595;SDS011;73564;45.026;38.952;2023-12-22T14:46:57;12.98;;;6.95;;
83595;SDS011;73564;45.026;38.952;2023-12-22T14:49:23;15.52;;;7.30;;
83595;SDS011;73564;45.026;38.952;2023-12-22T14:51:49;14.75;;;7.35;;
83595;SDS011;73564;45.026;38.952;2023-12-22T14:54:19;15.00;;;7.55;;
83595;SDS011;73564;45.026;38.952;2023-12-22T14:56:49;15.77;;;7.72;;
83595;SDS011;73564;45.026;38.952;2023-12-22T14:59:16;14.80;;;6.82;;
83595;SDS011;73564;45.026;38.952;2023-12-22T15:01:45;13.13;;;6.95;;
83595;SDS011;73564;45.026;38.952;2023-12-22T15:04:11;13.32;;;6.20;;
83595;SDS011;73564;45.026;38.952;2023-12-22T15:06:40;12.55;;;6.82;;
83595;SDS011;73564;45.026;38.952;2023-12-22T15:09:09;13.98;;;7.03;;